Skip Navigation Links Skip Navigation Links

Current Weather

Sussex, N.J.

For information only: do not use for flight planning or navigation.
Latest weather
Observation time Sunday, September 20, 2020 3:53 AM EDT
Local time Sunday, September 20, 2020 4:09 AM EDT
Flight conditions Visual Meteorological Conditions
Winds
Wind speed calm
Visibility 10 mi.
Sky condition
Ceiling unlimited
Sky clear
Temperature 37°F
Dewpoint 34°F
Altimeter 30.44 in.Hg
Derived measurements
Relative humidity 89%
Wind chill 37°F
Density altitude -1557 ft.
Sea-level pressure 30.45 in.Hg
Remarks
Fully automated report.
Automated weather observing station with precipitation discriminator.
METAR KFWN 200753Z AUTO 00000KT 10SM CLR 03/01 A3044 RMK AO2 SLP310 T00280011

Settings

Location code

InnerDrive.Weather 4.0.6770.0 Release CLR 4.0.30319.42000
Copyright ©2018 Inner Drive Technology. All rights reserved. Portions Copyright ©1986-2018 David Braverman.

Find weather

Site navigation


Skip Navigation Links

Place info

Page info

PayPal - The safer, easier way to pay online!

Return home.

Copyright ©2020 Inner Drive Technology. Purveyors of fine, hand-crafted computer software. Page printed 2020-09-20T08:09:19 UTC.